Time;durP1;ratioP1;P1;durP2;ratioP2;P2;SDS_P1;SDS_P2;PMS_P1;PMS_P2;Temp;Humidity;BMP_temperature;BMP_pressure;BME280_temperature;BME280_humidity;BME280_pressure;Samples;Min_cycle;Max_cycle;Signal;HPM_P1;HPM_P2
2022/03/30 00:01:56;;;;;;;21.33;13.50;;;;;;;;;;5061494;28;20693;-71
2022/03/30 00:04:28;;;;;;;21.03;14.57;;;;;;;;;;5065025;28;20287;-71
2022/03/30 00:06:55;;;;;;;21.57;13.37;;;;;;;;;;5064616;28;20661;-72
2022/03/30 00:09:24;;;;;;;20.20;12.70;;;;;;;;;;5065079;28;20185;-71
2022/03/30 00:11:56;;;;;;;19.33;12.43;;;;;;;;;;5066593;28;20195;-71
2022/03/30 00:14:23;;;;;;;16.27;11.57;;;;;;;;;;5068741;28;20224;-72
2022/03/30 00:16:51;;;;;;;14.80;11.50;;;;;;;;;;5067085;28;20188;-72
2022/03/30 00:19:19;;;;;;;18.73;12.83;;;;;;;;;;5063686;28;20214;-71
2022/03/30 00:21:51;;;;;;;18.90;13.10;;;;;;;;;;5063490;28;20280;-71
2022/03/30 00:24:20;;;;;;;21.93;13.23;;;;;;;;;;5067759;28;20256;-72
2022/03/30 00:26:46;;;;;;;18.50;12.10;;;;;;;;;;5059729;28;20178;-71
2022/03/30 00:29:14;;;;;;;15.43;12.20;;;;;;;;;;5061908;28;20185;-72
2022/03/30 00:31:41;;;;;;;18.20;12.27;;;;;;;;;;5065433;28;20264;-72
2022/03/30 00:34:08;;;;;;;17.93;13.00;;;;;;;;;;5063263;28;20213;-71
2022/03/30 00:36:37;;;;;;;17.90;12.10;;;;;;;;;;5067366;28;20609;-72
2022/03/30 00:39:04;;;;;;;22.97;13.83;;;;;;;;;;5067248;28;20702;-72
2022/03/30 00:41:30;;;;;;;16.90;12.37;;;;;;;;;;5068872;28;20181;-72
2022/03/30 00:43:57;;;;;;;19.53;13.00;;;;;;;;;;5067614;28;20613;-72
2022/03/30 00:46:26;;;;;;;18.63;13.00;;;;;;;;;;5067291;28;20231;-71
2022/03/30 00:48:53;;;;;;;17.20;11.97;;;;;;;;;;5065938;28;20553;-72
2022/03/30 00:51:20;;;;;;;17.83;12.57;;;;;;;;;;5065551;28;20361;-72
2022/03/30 00:53:54;;;;;;;16.57;11.77;;;;;;;;;;5061177;28;20292;-71
2022/03/30 00:56:21;;;;;;;14.83;11.03;;;;;;;;;;5068120;28;20275;-71
2022/03/30 00:58:47;;;;;;;15.33;11.10;;;;;;;;;;5068158;28;20209;-71
2022/03/30 01:01:14;;;;;;;13.43;9.93;;;;;;;;;;5068965;28;20193;-71
2022/03/30 01:03:41;;;;;;;14.87;10.83;;;;;;;;;;5066748;28;20252;-71
2022/03/30 01:06:07;;;;;;;16.03;10.23;;;;;;;;;;5067617;28;20231;-72
2022/03/30 01:08:37;;;;;;;13.83;10.53;;;;;;;;;;5066446;28;20277;-71
2022/03/30 01:11:04;;;;;;;15.73;11.10;;;;;;;;;;5065165;28;20178;-72
2022/03/30 01:13:33;;;;;;;15.37;10.93;;;;;;;;;;5061290;28;20216;-71
2022/03/30 01:16:02;;;;;;;15.00;10.97;;;;;;;;;;5067936;28;20181;-71
2022/03/30 01:18:28;;;;;;;13.50;10.70;;;;;;;;;;5071111;28;20221;-72
2022/03/30 01:20:55;;;;;;;13.40;10.30;;;;;;;;;;5063905;28;20184;-72
2022/03/30 01:23:24;;;;;;;15.90;10.70;;;;;;;;;;5068865;28;20204;-71
2022/03/30 01:25:51;;;;;;;14.77;11.10;;;;;;;;;;5071595;28;20186;-71
2022/03/30 01:28:22;;;;;;;20.13;12.87;;;;;;;;;;5071381;28;20193;-71
2022/03/30 01:33:39;;;;;;;22.90;15.07;;;;;;;;;;5069986;28;20243;-71
2022/03/30 01:36:06;;;;;;;18.77;12.67;;;;;;;;;;5071145;28;20187;-71
2022/03/30 01:38:32;;;;;;;18.80;11.87;;;;;;;;;;5070234;28;20288;-71
2022/03/30 01:40:59;;;;;;;16.43;11.47;;;;;;;;;;5070198;28;20169;-72
2022/03/30 01:43:28;;;;;;;16.33;11.53;;;;;;;;;;5069524;28;20201;-72
2022/03/30 01:45:57;;;;;;;16.10;11.27;;;;;;;;;;5071971;28;20185;-71
2022/03/30 01:48:24;;;;;;;16.13;11.20;;;;;;;;;;5064957;28;20215;-72
2022/03/30 01:50:53;;;;;;;17.50;11.97;;;;;;;;;;5068105;28;20192;-72
2022/03/30 01:53:20;;;;;;;16.50;12.13;;;;;;;;;;5070212;28;20218;-71
2022/03/30 01:55:53;;;;;;;15.87;11.43;;;;;;;;;;5072015;28;20250;-71
2022/03/30 01:58:20;;;;;;;14.07;10.67;;;;;;;;;;5069566;28;20209;-71
2022/03/30 02:00:47;;;;;;;11.83;9.67;;;;;;;;;;5070593;28;20174;-71
2022/03/30 02:03:14;;;;;;;12.23;9.20;;;;;;;;;;5068112;28;20216;-71
2022/03/30 02:05:46;;;;;;;11.27;9.00;;;;;;;;;;5063004;28;20267;-72
2022/03/30 02:08:13;;;;;;;13.50;10.37;;;;;;;;;;5067679;28;20185;-72
2022/03/30 02:10:39;;;;;;;13.90;9.70;;;;;;;;;;5070248;28;20188;-71
2022/03/30 02:13:11;;;;;;;12.53;9.23;;;;;;;;;;5062064;28;20299;-71
2022/03/30 02:15:38;;;;;;;13.27;9.57;;;;;;;;;;5065611;28;20189;-71
2022/03/30 02:18:05;;;;;;;12.13;8.90;;;;;;;;;;5082327;28;20280;-72
2022/03/30 02:20:32;;;;;;;10.80;8.80;;;;;;;;;;5064294;28;20169;-72
2022/03/30 02:23:02;;;;;;;12.37;9.57;;;;;;;;;;5066318;28;20205;-72
2022/03/30 02:25:28;;;;;;;12.13;9.07;;;;;;;;;;5065612;28;20188;-72
2022/03/30 02:27:58;;;;;;;12.10;9.60;;;;;;;;;;5063203;28;20564;-71
2022/03/30 02:30:25;;;;;;;12.53;10.03;;;;;;;;;;5063973;28;20203;-72
2022/03/30 02:32:51;;;;;;;13.17;10.17;;;;;;;;;;5065507;28;20197;-71
2022/03/30 02:35:19;;;;;;;12.23;9.77;;;;;;;;;;5066242;28;20662;-71
2022/03/30 02:37:49;;;;;;;16.00;10.67;;;;;;;;;;5066179;28;20467;-72
2022/03/30 02:40:15;;;;;;;11.40;9.20;;;;;;;;;;5069597;28;20189;-72
2022/03/30 02:42:45;;;;;;;11.10;9.40;;;;;;;;;;5066702;28;20177;-71
2022/03/30 02:45:16;;;;;;;13.33;10.37;;;;;;;;;;5066315;28;20177;-72
2022/03/30 02:50:29;;;;;;;14.40;10.47;;;;;;;;;;5066055;28;20231;-72
2022/03/30 02:52:56;;;;;;;15.37;10.10;;;;;;;;;;5067860;28;20208;-72
2022/03/30 02:55:22;;;;;;;16.63;11.47;;;;;;;;;;5068116;28;20530;-72
2022/03/30 02:57:49;;;;;;;15.73;11.23;;;;;;;;;;5068786;28;20217;-72
2022/03/30 03:00:17;;;;;;;16.50;12.70;;;;;;;;;;5066274;28;20204;-71
2022/03/30 03:02:46;;;;;;;16.47;12.40;;;;;;;;;;5063633;28;20283;-72
2022/03/30 03:05:12;;;;;;;15.23;11.33;;;;;;;;;;5063438;28;20191;-72
2022/03/30 03:07:40;;;;;;;14.30;11.73;;;;;;;;;;5065291;28;20609;-72
2022/03/30 03:10:11;;;;;;;15.03;10.93;;;;;;;;;;5064481;28;20626;-72
2022/03/30 03:12:42;;;;;;;14.33;10.93;;;;;;;;;;5066175;28;20201;-71
2022/03/30 03:15:09;;;;;;;14.97;11.67;;;;;;;;;;5062520;28;20174;-71
2022/03/30 03:17:39;;;;;;;16.63;12.13;;;;;;;;;;5067949;28;20243;-72
2022/03/30 03:20:06;;;;;;;18.10;12.83;;;;;;;;;;5064863;28;20185;-72
2022/03/30 03:22:36;;;;;;;17.73;13.23;;;;;;;;;;5066838;28;20660;-71
2022/03/30 03:25:02;;;;;;;18.93;12.70;;;;;;;;;;5061839;28;20614;-71
2022/03/30 03:27:29;;;;;;;17.03;12.63;;;;;;;;;;5066831;28;20177;-72
2022/03/30 03:29:56;;;;;;;20.97;13.20;;;;;;;;;;5068357;28;21038;-71
2022/03/30 03:32:23;;;;;;;19.23;13.50;;;;;;;;;;5064527;28;20182;-71
2022/03/30 03:34:50;;;;;;;18.33;13.03;;;;;;;;;;5068957;28;20594;-71
2022/03/30 03:37:16;;;;;;;18.10;11.97;;;;;;;;;;5066372;28;20189;-71
2022/03/30 03:39:43;;;;;;;16.90;12.17;;;;;;;;;;5063235;28;20184;-72
2022/03/30 03:42:10;;;;;;;16.70;12.73;;;;;;;;;;5064500;28;20192;-71
2022/03/30 03:44:37;;;;;;;20.93;12.73;;;;;;;;;;5064724;28;20291;-71
2022/03/30 03:47:09;;;;;;;20.07;14.03;;;;;;;;;;5065698;28;20921;-71
2022/03/30 03:49:44;;;;;;;19.43;14.03;;;;;;;;;;5062775;28;20238;-71
2022/03/30 03:52:11;;;;;;;20.07;14.97;;;;;;;;;;5062024;28;20181;-71
2022/03/30 03:54:38;;;;;;;18.93;12.93;;;;;;;;;;5067603;28;20209;-72
2022/03/30 03:57:05;;;;;;;19.03;12.00;;;;;;;;;;5067020;28;20185;-72
2022/03/30 03:59:31;;;;;;;15.67;11.63;;;;;;;;;;5064382;28;20266;-72
2022/03/30 04:02:02;;;;;;;18.60;12.97;;;;;;;;;;5065902;28;20232;-71
2022/03/30 04:04:29;;;;;;;19.83;14.60;;;;;;;;;;5066473;28;20208;-72
2022/03/30 04:07:02;;;;;;;19.83;13.87;;;;;;;;;;5065730;28;20231;-71
2022/03/30 04:09:28;;;;;;;18.90;14.20;;;;;;;;;;5065293;28;20182;-72
2022/03/30 04:11:59;;;;;;;19.33;13.70;;;;;;;;;;5063022;28;20457;-72
2022/03/30 04:14:26;;;;;;;18.70;13.30;;;;;;;;;;5065445;28;20208;-71
2022/03/30 04:16:53;;;;;;;16.23;12.97;;;;;;;;;;5066202;28;20189;-72
2022/03/30 04:19:20;;;;;;;19.47;13.37;;;;;;;;;;5059441;28;20269;-71
2022/03/30 04:21:46;;;;;;;20.03;14.53;;;;;;;;;;5065981;28;20242;-71
2022/03/30 04:24:15;;;;;;;20.73;14.50;;;;;;;;;;5065711;28;20204;-71
2022/03/30 04:26:45;;;;;;;24.27;16.20;;;;;;;;;;5068331;28;20189;-72
2022/03/30 04:29:14;;;;;;;22.90;16.30;;;;;;;;;;5067254;28;20185;-71
2022/03/30 04:31:41;;;;;;;21.37;15.27;;;;;;;;;;5069371;28;20188;-72
2022/03/30 04:34:10;;;;;;;21.97;15.80;;;;;;;;;;5066737;28;20696;-71
2022/03/30 04:36:39;;;;;;;23.17;16.03;;;;;;;;;;5072119;28;20181;-71
2022/03/30 04:39:08;;;;;;;19.47;15.33;;;;;;;;;;5068758;28;20205;-71
2022/03/30 04:41:35;;;;;;;26.50;16.93;;;;;;;;;;5068034;28;20185;-71
2022/03/30 04:44:05;;;;;;;22.97;16.30;;;;;;;;;;5067025;28;20207;-71
2022/03/30 04:46:32;;;;;;;25.07;16.93;;;;;;;;;;5068190;28;20205;-71
2022/03/30 04:49:05;;;;;;;22.67;15.53;;;;;;;;;;5066464;28;20733;-72
2022/03/30 04:51:34;;;;;;;18.90;14.63;;;;;;;;;;5070038;28;20202;-72
2022/03/30 04:54:03;;;;;;;22.57;17.07;;;;;;;;;;5067661;28;20821;-72
2022/03/30 04:56:36;;;;;;;21.70;16.40;;;;;;;;;;5068202;28;20193;-71
2022/03/30 04:59:02;;;;;;;20.63;14.97;;;;;;;;;;5066770;28;20552;-72
2022/03/30 05:01:29;;;;;;;22.13;15.23;;;;;;;;;;5068391;28;20208;-71
2022/03/30 05:03:56;;;;;;;20.07;14.70;;;;;;;;;;5064193;28;20565;-72
2022/03/30 05:06:25;;;;;;;23.53;15.20;;;;;;;;;;5070579;28;20648;-71
2022/03/30 05:08:55;;;;;;;24.53;16.67;;;;;;;;;;5067112;28;20199;-71
2022/03/30 05:11:22;;;;;;;21.20;15.47;;;;;;;;;;5070212;28;20276;-71
2022/03/30 05:13:55;;;;;;;19.43;14.10;;;;;;;;;;5068150;28;20201;-71
2022/03/30 05:16:22;;;;;;;18.67;13.73;;;;;;;;;;5069944;28;20200;-74
2022/03/30 05:18:48;;;;;;;21.67;15.23;;;;;;;;;;5063714;28;20212;-73
2022/03/30 05:21:15;;;;;;;24.13;16.30;;;;;;;;;;5070144;28;20185;-74
2022/03/30 05:23:53;;;;;;;22.67;15.53;;;;;;;;;;5068233;28;20208;-73
2022/03/30 05:26:23;;;;;;;24.57;16.10;;;;;;;;;;5061123;28;20192;-73
2022/03/30 05:28:49;;;;;;;22.70;15.93;;;;;;;;;;5069812;28;20189;-74
2022/03/30 05:31:25;;;;;;;25.83;16.70;;;;;;;;;;5068762;28;20196;-73
2022/03/30 05:33:52;;;;;;;23.30;15.40;;;;;;;;;;5068768;28;20209;-73
2022/03/30 05:36:19;;;;;;;28.07;19.40;;;;;;;;;;5063782;28;20262;-79
2022/03/30 05:38:50;;;;;;;26.30;17.70;;;;;;;;;;5062207;28;20200;-75
2022/03/30 05:41:22;;;;;;;28.33;18.40;;;;;;;;;;5066046;28;20186;-75
2022/03/30 05:43:52;;;;;;;27.60;17.73;;;;;;;;;;5061642;28;20205;-75
2022/03/30 05:46:18;;;;;;;24.20;16.33;;;;;;;;;;5071814;28;20181;-75
2022/03/30 05:48:45;;;;;;;25.83;18.17;;;;;;;;;;5071032;28;20284;-76
2022/03/30 05:51:11;;;;;;;26.83;18.97;;;;;;;;;;5070022;28;20193;-75
2022/03/30 05:53:39;;;;;;;27.67;18.00;;;;;;;;;;5070296;28;20330;-75
2022/03/30 05:56:08;;;;;;;27.53;18.50;;;;;;;;;;5067776;28;20184;-77
2022/03/30 05:58:35;;;;;;;30.77;20.47;;;;;;;;;;5069904;28;20212;-75
2022/03/30 06:01:04;;;;;;;30.43;19.73;;;;;;;;;;5069984;28;20189;-74
2022/03/30 06:03:31;;;;;;;32.87;20.60;;;;;;;;;;5070483;28;20223;-74
2022/03/30 06:06:03;;;;;;;31.70;21.40;;;;;;;;;;5068955;28;20560;-73
2022/03/30 06:08:33;;;;;;;30.57;19.83;;;;;;;;;;5067012;28;20216;-73
2022/03/30 06:10:59;;;;;;;29.80;20.07;;;;;;;;;;5063017;28;20192;-73
2022/03/30 06:13:28;;;;;;;29.30;18.63;;;;;;;;;;5062882;28;20203;-73
2022/03/30 06:15:55;;;;;;;31.50;20.07;;;;;;;;;;5070501;28;20181;-73
2022/03/30 06:18:21;;;;;;;27.33;18.40;;;;;;;;;;5068372;28;20217;-72
2022/03/30 06:20:48;;;;;;;31.67;20.73;;;;;;;;;;5067866;28;20270;-72
2022/03/30 06:23:15;;;;;;;29.63;20.17;;;;;;;;;;5067379;28;20755;-74
2022/03/30 06:25:45;;;;;;;33.20;20.97;;;;;;;;;;5068336;28;20649;-73
2022/03/30 06:28:14;;;;;;;35.23;22.77;;;;;;;;;;5047920;28;20188;-73
2022/03/30 06:30:40;;;;;;;33.27;21.63;;;;;;;;;;5069336;28;20196;-73
2022/03/30 06:33:07;;;;;;;32.03;22.63;;;;;;;;;;5069157;28;20205;-73
2022/03/30 06:35:34;;;;;;;33.77;22.60;;;;;;;;;;5068920;28;20181;-74
2022/03/30 06:38:02;;;;;;;38.70;24.10;;;;;;;;;;5066614;28;20688;-73
2022/03/30 06:40:33;;;;;;;34.53;23.00;;;;;;;;;;5050038;28;20567;-73
2022/03/30 06:43:05;;;;;;;34.97;22.60;;;;;;;;;;5067205;28;20234;-73
2022/03/30 06:45:32;;;;;;;40.73;24.30;;;;;;;;;;5059057;28;20264;-73
2022/03/30 06:47:59;;;;;;;40.83;26.57;;;;;;;;;;5083251;28;20181;-73
2022/03/30 06:50:29;;;;;;;37.43;24.37;;;;;;;;;;5066180;28;20186;-73
2022/03/30 06:52:58;;;;;;;36.33;23.37;;;;;;;;;;5047610;28;20626;-73
2022/03/30 06:55:27;;;;;;;36.03;24.23;;;;;;;;;;5069370;28;20211;-73
2022/03/30 06:57:54;;;;;;;39.97;24.93;;;;;;;;;;5067022;28;20201;-76
2022/03/30 07:00:21;;;;;;;38.33;24.40;;;;;;;;;;5064365;28;20203;-72
2022/03/30 07:02:47;;;;;;;42.73;25.10;;;;;;;;;;5067265;28;20184;-73
2022/03/30 07:05:14;;;;;;;39.73;25.60;;;;;;;;;;5067049;28;20215;-73
2022/03/30 07:10:27;;;;;;;35.63;23.30;;;;;;;;;;5065033;28;20196;-73
2022/03/30 07:12:54;;;;;;;34.07;22.30;;;;;;;;;;5067033;28;20279;-73
2022/03/30 07:15:23;;;;;;;32.60;22.20;;;;;;;;;;5066843;28;20184;-73
2022/03/30 07:17:51;;;;;;;38.30;24.97;;;;;;;;;;5068683;28;20593;-73
2022/03/30 07:20:18;;;;;;;34.90;22.57;;;;;;;;;;5067858;28;20189;-72
2022/03/30 07:22:47;;;;;;;33.07;22.20;;;;;;;;;;5060136;28;20178;-73
2022/03/30 07:25:14;;;;;;;31.27;21.27;;;;;;;;;;5067946;28;20187;-72
2022/03/30 07:27:41;;;;;;;34.27;21.87;;;;;;;;;;5083136;28;20188;-73
2022/03/30 07:30:08;;;;;;;33.77;21.40;;;;;;;;;;5069115;28;20192;-73
2022/03/30 07:32:39;;;;;;;30.80;20.80;;;;;;;;;;5065244;28;20181;-73
2022/03/30 07:35:07;;;;;;;37.93;24.40;;;;;;;;;;5067856;28;20231;-73
2022/03/30 07:37:34;;;;;;;33.43;22.07;;;;;;;;;;5070625;28;20192;-74
2022/03/30 07:40:02;;;;;;;33.53;22.60;;;;;;;;;;5069372;28;20180;-74
2022/03/30 07:42:33;;;;;;;33.30;22.17;;;;;;;;;;5067337;28;20197;-73
2022/03/30 07:45:05;;;;;;;36.50;22.17;;;;;;;;;;5061641;28;20211;-73
2022/03/30 07:47:31;;;;;;;36.37;23.07;;;;;;;;;;5066846;28;20189;-73
2022/03/30 07:49:58;;;;;;;35.93;23.13;;;;;;;;;;5068746;28;20273;-73
2022/03/30 07:52:25;;;;;;;36.00;23.73;;;;;;;;;;5063361;28;20186;-73
2022/03/30 07:54:53;;;;;;;32.80;22.93;;;;;;;;;;5063988;28;20193;-73
2022/03/30 07:57:26;;;;;;;36.67;24.53;;;;;;;;;;5069392;28;20181;-73
2022/03/30 07:59:55;;;;;;;42.57;26.60;;;;;;;;;;5069663;28;20239;-73
2022/03/30 08:02:25;;;;;;;44.13;26.93;;;;;;;;;;5070380;28;20193;-73
2022/03/30 08:04:51;;;;;;;48.40;29.27;;;;;;;;;;5072104;28;20720;-73
2022/03/30 08:07:18;;;;;;;46.17;28.27;;;;;;;;;;5071930;28;20212;-72
2022/03/30 08:09:48;;;;;;;43.30;26.60;;;;;;;;;;5070513;28;20679;-76
2022/03/30 08:12:19;;;;;;;41.33;26.20;;;;;;;;;;5072847;28;20181;-75
2022/03/30 08:14:46;;;;;;;43.00;26.77;;;;;;;;;;5071134;28;20296;-72
2022/03/30 08:17:15;;;;;;;46.93;28.87;;;;;;;;;;5067000;28;20205;-70
2022/03/30 08:19:50;;;;;;;42.37;27.13;;;;;;;;;;5071004;28;20316;-72
2022/03/30 08:22:26;;;;;;;43.77;27.23;;;;;;;;;;5071274;28;20189;-72
2022/03/30 08:24:53;;;;;;;44.73;27.50;;;;;;;;;;5066617;28;20592;-72
2022/03/30 08:27:21;;;;;;;46.33;29.93;;;;;;;;;;5072658;28;20866;-72
2022/03/30 08:29:48;;;;;;;47.37;30.97;;;;;;;;;;5071755;28;20256;-72
2022/03/30 08:32:18;;;;;;;44.83;29.50;;;;;;;;;;5072491;28;20271;-72
2022/03/30 08:34:45;;;;;;;43.97;29.17;;;;;;;;;;5069218;28;20874;-72
2022/03/30 08:37:12;;;;;;;45.47;28.33;;;;;;;;;;5071741;28;20197;-72
2022/03/30 08:39:38;;;;;;;48.73;31.57;;;;;;;;;;5070200;28;20201;-72
2022/03/30 08:42:06;;;;;;;46.17;30.10;;;;;;;;;;5064631;28;20181;-72
2022/03/30 08:44:33;;;;;;;44.10;29.17;;;;;;;;;;5067512;28;20212;-72
2022/03/30 08:47:00;;;;;;;46.73;29.43;;;;;;;;;;5072582;28;20697;-72
2022/03/30 08:49:33;;;;;;;41.10;27.00;;;;;;;;;;5054413;28;20204;-73
2022/03/30 08:52:02;;;;;;;43.37;28.33;;;;;;;;;;5069789;28;20193;-73
2022/03/30 08:54:28;;;;;;;44.87;28.37;;;;;;;;;;5068788;28;20200;-72
2022/03/30 08:56:58;;;;;;;48.73;29.90;;;;;;;;;;5072004;28;20242;-73
2022/03/30 08:59:27;;;;;;;46.23;31.13;;;;;;;;;;5066027;28;20213;-73
2022/03/30 09:01:55;;;;;;;45.47;29.93;;;;;;;;;;5065872;28;20200;-73
2022/03/30 09:04:27;;;;;;;42.00;27.93;;;;;;;;;;5071620;28;20208;-72
2022/03/30 09:06:58;;;;;;;45.47;28.83;;;;;;;;;;5042948;28;20181;-72
2022/03/30 09:09:30;;;;;;;43.23;28.27;;;;;;;;;;5066115;28;20185;-72
2022/03/30 09:12:00;;;;;;;40.03;27.13;;;;;;;;;;5068960;28;20193;-72
2022/03/30 09:14:31;;;;;;;42.57;27.73;;;;;;;;;;5069950;28;20584;-73
2022/03/30 09:17:02;;;;;;;44.43;27.50;;;;;;;;;;5070618;28;20181;-73
2022/03/30 09:19:30;;;;;;;42.90;28.90;;;;;;;;;;5071462;28;20663;-72
2022/03/30 09:21:59;;;;;;;42.17;27.00;;;;;;;;;;5071797;28;20181;-72
2022/03/30 09:24:31;;;;;;;40.93;28.00;;;;;;;;;;5071769;28;20201;-71
2022/03/30 09:26:59;;;;;;;42.87;28.80;;;;;;;;;;5069663;28;20189;-73
2022/03/30 09:29:30;;;;;;;42.03;27.07;;;;;;;;;;5070613;28;20185;-73
2022/03/30 09:32:02;;;;;;;39.37;26.47;;;;;;;;;;5059670;28;20189;-73
2022/03/30 09:34:33;;;;;;;41.53;27.73;;;;;;;;;;5068768;28;20283;-72
2022/03/30 09:37:00;;;;;;;38.67;26.17;;;;;;;;;;5071114;28;20196;-72
2022/03/30 09:39:29;;;;;;;37.90;25.40;;;;;;;;;;5071500;28;20795;-72
2022/03/30 09:41:56;;;;;;;41.00;26.80;;;;;;;;;;5071429;28;20181;-72
2022/03/30 09:44:22;;;;;;;43.37;27.87;;;;;;;;;;5070734;28;20211;-73
2022/03/30 09:46:56;;;;;;;40.33;25.70;;;;;;;;;;5071231;28;20209;-73
2022/03/30 09:49:31;;;;;;;41.77;26.60;;;;;;;;;;5070876;28;20600;-73
2022/03/30 09:51:57;;;;;;;39.97;26.33;;;;;;;;;;5068661;28;20181;-75
2022/03/30 09:54:38;;;;;;;37.57;25.30;;;;;;;;;;5071836;28;20197;-72
2022/03/30 09:57:30;;;;;;;44.47;29.03;;;;;;;;;;5069813;28;20177;-74
2022/03/30 10:00:02;;;;;;;37.03;26.20;;;;;;;;;;5065995;28;20228;-73
2022/03/30 10:02:38;;;;;;;40.47;28.00;;;;;;;;;;5069364;28;20205;-74
2022/03/30 10:05:05;;;;;;;40.83;29.20;;;;;;;;;;5070250;28;20234;-77
2022/03/30 10:07:32;;;;;;;40.83;26.77;;;;;;;;;;5069870;28;20355;-72
2022/03/30 10:09:59;;;;;;;41.83;27.30;;;;;;;;;;5070080;28;20185;-74
2022/03/30 10:12:26;;;;;;;34.30;24.13;;;;;;;;;;5070661;28;20660;-77
2022/03/30 10:14:54;;;;;;;39.70;26.60;;;;;;;;;;5061883;28;20205;-71
2022/03/30 10:17:20;;;;;;;40.03;26.10;;;;;;;;;;5068551;28;20189;-73
2022/03/30 10:19:46;;;;;;;36.67;25.07;;;;;;;;;;5069419;28;20212;-72
2022/03/30 10:22:27;;;;;;;36.73;25.43;;;;;;;;;;5065279;28;20178;-73
2022/03/30 10:24:57;;;;;;;36.27;24.97;;;;;;;;;;5062392;28;20204;-75
2022/03/30 10:27:33;;;;;;;30.77;22.03;;;;;;;;;;5063643;28;20587;-72
2022/03/30 10:30:01;;;;;;;33.80;22.57;;;;;;;;;;5061913;28;21109;-74
2022/03/30 10:32:33;;;;;;;33.57;23.17;;;;;;;;;;5067259;28;20241;-77
2022/03/30 10:35:05;;;;;;;36.07;24.27;;;;;;;;;;5069066;28;20258;-78
2022/03/30 10:37:37;;;;;;;42.77;26.70;;;;;;;;;;5065615;28;20679;-73
2022/03/30 10:40:04;;;;;;;34.80;23.43;;;;;;;;;;5060274;28;20331;-72
2022/03/30 10:42:49;;;;;;;33.10;23.60;;;;;;;;;;5066177;28;20193;-73
2022/03/30 10:45:26;;;;;;;34.40;23.43;;;;;;;;;;5068606;28;20177;-73
2022/03/30 10:48:07;;;;;;;36.07;23.80;;;;;;;;;;5064137;28;20254;-73
2022/03/30 10:50:34;;;;;;;37.10;25.07;;;;;;;;;;5060283;28;20188;-72
2022/03/30 10:53:01;;;;;;;36.63;24.93;;;;;;;;;;5060709;28;20193;-74
2022/03/30 10:55:29;;;;;;;33.27;23.10;;;;;;;;;;5066501;28;20192;-73
2022/03/30 10:58:01;;;;;;;33.40;23.03;;;;;;;;;;5066261;28;20602;-74
2022/03/30 11:00:40;;;;;;;33.23;23.13;;;;;;;;;;5044804;28;20265;-74
2022/03/30 11:03:06;;;;;;;32.30;22.37;;;;;;;;;;5064626;28;20212;-73
2022/03/30 11:05:32;;;;;;;32.97;22.60;;;;;;;;;;5062868;28;20656;-76
2022/03/30 11:08:00;;;;;;;35.60;24.30;;;;;;;;;;5066635;28;20652;-73
2022/03/30 11:10:27;;;;;;;34.20;23.97;;;;;;;;;;5064775;28;20222;-73
2022/03/30 11:12:57;;;;;;;31.33;22.43;;;;;;;;;;5059123;28;20201;-76
2022/03/30 11:15:23;;;;;;;32.73;22.77;;;;;;;;;;5074502;28;20189;-75
2022/03/30 11:17:50;;;;;;;33.03;22.60;;;;;;;;;;5070099;28;20200;-75
2022/03/30 11:20:16;;;;;;;32.27;22.93;;;;;;;;;;5066835;28;20191;-77
2022/03/30 11:22:45;;;;;;;34.03;24.23;;;;;;;;;;5069450;28;20276;-75
2022/03/30 11:25:18;;;;;;;32.03;22.10;;;;;;;;;;5070204;28;20222;-75
2022/03/30 11:27:48;;;;;;;34.50;24.33;;;;;;;;;;5068162;28;20738;-75
2022/03/30 11:30:18;;;;;;;32.50;24.27;;;;;;;;;;5062560;28;20174;-78
2022/03/30 11:32:44;;;;;;;31.93;22.47;;;;;;;;;;5064476;28;20177;-74
2022/03/30 11:35:17;;;;;;;32.60;23.13;;;;;;;;;;5072441;28;20544;-74
2022/03/30 11:37:46;;;;;;;29.27;22.00;;;;;;;;;;5070768;28;20544;-75
2022/03/30 11:40:17;;;;;;;27.87;20.40;;;;;;;;;;5074870;28;20165;-74
2022/03/30 11:42:44;;;;;;;28.73;20.30;;;;;;;;;;5068618;28;20334;-74
2022/03/30 11:45:12;;;;;;;28.33;20.90;;;;;;;;;;5073464;28;20181;-75
2022/03/30 11:47:40;;;;;;;28.90;21.03;;;;;;;;;;5054532;28;20694;-75
2022/03/30 11:50:06;;;;;;;27.07;20.30;;;;;;;;;;5069909;28;20187;-74
2022/03/30 11:52:32;;;;;;;31.03;22.67;;;;;;;;;;5072825;28;20270;-75
2022/03/30 11:54:58;;;;;;;28.43;20.97;;;;;;;;;;5070799;28;20743;-75
2022/03/30 11:57:25;;;;;;;32.03;23.00;;;;;;;;;;5072497;28;20209;-76
2022/03/30 11:59:57;;;;;;;31.00;22.83;;;;;;;;;;5060092;28;20288;-76
2022/03/30 12:02:24;;;;;;;28.20;19.93;;;;;;;;;;5071257;28;20248;-75
2022/03/30 12:04:51;;;;;;;30.90;20.07;;;;;;;;;;5073266;28;20292;-75
2022/03/30 12:07:19;;;;;;;30.37;22.17;;;;;;;;;;5071631;28;20193;-76
2022/03/30 12:09:55;;;;;;;30.33;20.60;;;;;;;;;;5072627;28;20203;-77
2022/03/30 12:12:35;;;;;;;29.13;19.60;;;;;;;;;;5071505;28;20188;-75
2022/03/30 12:15:09;;;;;;;25.13;19.73;;;;;;;;;;5071961;28;20190;-75
2022/03/30 12:17:36;;;;;;;25.70;19.43;;;;;;;;;;5064516;28;20246;-75
2022/03/30 12:20:05;;;;;;;26.53;19.57;;;;;;;;;;5070498;28;20200;-75
2022/03/30 12:22:32;;;;;;;27.67;21.03;;;;;;;;;;5069126;28;20188;-75
2022/03/30 12:24:59;;;;;;;25.10;19.27;;;;;;;;;;5069141;28;20269;-74
2022/03/30 12:27:26;;;;;;;29.63;21.27;;;;;;;;;;5072099;28;20184;-74
2022/03/30 12:29:57;;;;;;;28.57;20.13;;;;;;;;;;5069994;28;20702;-75
2022/03/30 12:32:24;;;;;;;27.57;21.23;;;;;;;;;;5061671;28;20699;-75
2022/03/30 12:35:05;;;;;;;27.03;19.90;;;;;;;;;;5065364;28;20291;-74
2022/03/30 12:37:31;;;;;;;26.53;20.37;;;;;;;;;;5070354;28;20557;-74
2022/03/30 12:40:06;;;;;;;27.07;19.70;;;;;;;;;;5072866;28;20205;-74
2022/03/30 12:42:33;;;;;;;28.23;20.80;;;;;;;;;;5072839;28;20589;-75
2022/03/30 12:45:02;;;;;;;29.03;20.70;;;;;;;;;;5073823;28;20704;-74
2022/03/30 12:47:30;;;;;;;28.90;21.63;;;;;;;;;;5070613;28;20173;-75
2022/03/30 12:49:57;;;;;;;30.03;21.40;;;;;;;;;;5066721;28;20177;-74
2022/03/30 12:52:32;;;;;;;29.67;21.93;;;;;;;;;;5071977;28;20196;-76
2022/03/30 12:55:12;;;;;;;26.90;20.47;;;;;;;;;;5073432;28;20263;-74
2022/03/30 12:57:48;;;;;;;26.90;20.57;;;;;;;;;;5073185;28;20249;-74
2022/03/30 13:00:16;;;;;;;28.40;20.63;;;;;;;;;;5073504;28;20259;-74
2022/03/30 13:02:42;;;;;;;27.73;20.73;;;;;;;;;;5072582;28;20197;-75
2022/03/30 13:05:09;;;;;;;29.97;21.40;;;;;;;;;;5073413;28;20225;-75
2022/03/30 13:07:48;;;;;;;29.70;22.50;;;;;;;;;;5071952;28;20248;-76
2022/03/30 13:10:16;;;;;;;33.07;21.83;;;;;;;;;;5073293;28;20176;-74
2022/03/30 13:12:54;;;;;;;31.47;22.27;;;;;;;;;;5081694;28;20189;-75
2022/03/30 13:15:22;;;;;;;30.63;22.60;;;;;;;;;;5069084;28;20229;-75
2022/03/30 13:18:01;;;;;;;33.23;23.60;;;;;;;;;;5072919;28;20656;-75
2022/03/30 13:20:29;;;;;;;28.93;22.20;;;;;;;;;;5072528;28;20223;-76
2022/03/30 13:22:59;;;;;;;29.93;22.63;;;;;;;;;;5072846;28;20201;-75
2022/03/30 13:25:31;;;;;;;26.73;20.27;;;;;;;;;;5073222;28;20185;-75
2022/03/30 13:27:57;;;;;;;27.40;20.83;;;;;;;;;;5068584;28;20185;-75
2022/03/30 13:30:24;;;;;;;27.07;20.37;;;;;;;;;;5070829;28;20260;-75
2022/03/30 13:32:50;;;;;;;26.83;21.07;;;;;;;;;;5063904;28;20323;-75
2022/03/30 13:35:16;;;;;;;31.47;22.77;;;;;;;;;;5061383;28;20188;-77
2022/03/30 13:37:42;;;;;;;31.53;23.47;;;;;;;;;;5068327;28;20185;-77
2022/03/30 13:40:09;;;;;;;29.00;21.83;;;;;;;;;;5069866;28;20189;-80
2022/03/30 13:42:35;;;;;;;28.07;22.60;;;;;;;;;;5069672;28;20692;-73
2022/03/30 13:45:01;;;;;;;29.53;22.53;;;;;;;;;;5064214;28;20185;-74
2022/03/30 13:47:28;;;;;;;33.33;24.30;;;;;;;;;;5065744;28;20659;-76
2022/03/30 13:49:54;;;;;;;34.03;24.97;;;;;;;;;;5065166;28;20188;-73
2022/03/30 13:52:23;;;;;;;32.50;24.40;;;;;;;;;;5063106;28;20190;-73
2022/03/30 13:54:49;;;;;;;30.80;23.33;;;;;;;;;;5069762;28;20201;-74
2022/03/30 13:57:15;;;;;;;31.47;22.93;;;;;;;;;;5066757;28;20181;-74
2022/03/30 13:59:41;;;;;;;30.77;22.53;;;;;;;;;;5070469;28;20298;-74
2022/03/30 14:02:08;;;;;;;28.90;21.17;;;;;;;;;;5059211;28;20197;-74
2022/03/30 14:04:34;;;;;;;28.50;21.80;;;;;;;;;;5065471;28;20627;-74
2022/03/30 14:07:01;;;;;;;27.70;20.97;;;;;;;;;;5071134;28;20315;-78
2022/03/30 14:09:31;;;;;;;30.43;21.80;;;;;;;;;;5066565;28;20311;-75
2022/03/30 14:12:01;;;;;;;25.93;19.97;;;;;;;;;;5054045;28;20192;-77
2022/03/30 14:14:28;;;;;;;26.70;19.77;;;;;;;;;;5056905;28;20206;-77
2022/03/30 14:16:55;;;;;;;25.17;20.07;;;;;;;;;;5061740;28;20645;-76
2022/03/30 14:19:22;;;;;;;25.20;19.67;;;;;;;;;;5069632;28;20670;-75
2022/03/30 14:21:48;;;;;;;25.33;19.80;;;;;;;;;;5068921;28;20315;-75
2022/03/30 14:24:15;;;;;;;24.30;18.63;;;;;;;;;;5068399;28;20192;-75
2022/03/30 14:26:41;;;;;;;23.53;18.53;;;;;;;;;;5067663;28;20188;-75
2022/03/30 14:29:07;;;;;;;26.00;20.70;;;;;;;;;;5068758;28;20655;-75
2022/03/30 14:31:34;;;;;;;27.03;20.37;;;;;;;;;;5067099;28;20196;-75
2022/03/30 14:34:00;;;;;;;29.10;21.67;;;;;;;;;;5064177;28;20277;-75
2022/03/30 14:36:27;;;;;;;27.67;20.30;;;;;;;;;;5065687;28;20188;-76